Time,TemperatureF,DewpointF,PressureIn,WindDirection,WindDirectionDegrees,WindSpeedMPH,WindSpeedGustMPH,Humidity,HourlyPrecipIn,Conditions,Clouds,dailyrainin,SoftwareType,DateUTC
2013-01-31 00:02:00,54.0,28.0,29.94,NE,45,1.0,3.0,36,0.00,,,0.00,,2013-01-30 22:02:00,
2013-01-31 00:11:00,54.0,28.0,29.94,NE,45,1.0,3.0,36,0.00,,,0.00,,2013-01-30 22:11:00,
2013-01-31 00:21:00,55.0,29.0,29.94,NNE,32,3.0,6.0,36,0.00,,,0.00,,2013-01-30 22:21:00,
2013-01-31 00:32:00,55.0,29.0,29.94,NNW,339,2.0,4.0,37,0.00,,,0.00,,2013-01-30 22:32:00,
2013-01-31 00:41:00,55.0,29.0,29.94,NNW,339,2.0,4.0,37,0.00,,,0.00,,2013-01-30 22:41:00,
2013-01-31 00:52:00,55.0,29.0,29.94,NE,50,2.0,4.0,37,0.00,,,0.00,,2013-01-30 22:52:00,
2013-01-31 01:01:00,55.0,31.0,29.94,NE,53,1.0,3.0,40,0.00,,,0.00,,2013-01-30 23:01:00,
2013-01-31 01:11:00,55.0,31.0,29.94,NE,53,1.0,3.0,40,0.00,,,0.00,,2013-01-30 23:11:00,
2013-01-31 01:21:00,54.0,31.0,29.94,ENE,66,2.0,3.0,42,0.00,,,0.00,,2013-01-30 23:21:00,
2013-01-31 01:32:00,54.0,32.0,29.94,NNE,24,1.0,3.0,43,0.00,,,0.00,,2013-01-30 23:32:00,
2013-01-31 01:42:00,54.0,32.0,29.94,NNE,24,1.0,3.0,43,0.00,,,0.00,,2013-01-30 23:42:00,
2013-01-31 01:52:00,53.0,32.0,29.93,ENE,71,2.0,3.0,44,0.00,,,0.00,,2013-01-30 23:52:00,
2013-01-31 02:01:00,53.0,32.0,29.94,NNE,29,1.0,3.0,45,0.00,,,0.00,,2013-01-31 00:01:00,
2013-01-31 02:11:00,53.0,32.0,29.94,NNE,29,1.0,3.0,45,0.00,,,0.00,,2013-01-31 00:11:00,
2013-01-31 02:21:00,53.0,33.0,29.93,NNE,30,1.0,3.0,47,0.00,,,0.00,,2013-01-31 00:21:00,
2013-01-31 02:31:00,53.0,34.0,29.94,NNE,18,0.0,3.0,49,0.00,,,0.00,,2013-01-31 00:31:00,
2013-01-31 02:42:00,53.0,34.0,29.94,NNE,18,0.0,3.0,49,0.00,,,0.00,,2013-01-31 00:42:00,
2013-01-31 02:52:00,52.0,34.0,29.95,NNE,28,0.0,2.0,50,0.00,,,0.00,,2013-01-31 00:52:00,
2013-01-31 03:01:00,52.0,35.0,29.95,ENE,78,0.0,0.0,52,0.00,,,0.00,,2013-01-31 01:01:00,
2013-01-31 03:11:00,52.0,35.0,29.95,ENE,78,0.0,0.0,52,0.00,,,0.00,,2013-01-31 01:11:00,
2013-01-31 03:21:00,52.0,35.0,29.95,North,0,0.0,0.0,53,0.00,,,0.00,,2013-01-31 01:21:00,
2013-01-31 03:31:00,52.0,36.0,29.94,NE,52,1.0,2.0,55,0.00,,,0.00,,2013-01-31 01:31:00,
2013-01-31 03:41:00,52.0,36.0,29.94,NE,52,1.0,2.0,55,0.00,,,0.00,,2013-01-31 01:41:00,
2013-01-31 03:52:00,51.0,35.0,29.93,East,92,0.0,1.0,55,0.00,,,0.00,,2013-01-31 01:52:00,
2013-01-31 04:01:00,51.0,36.0,29.92,North,1,0.0,0.0,56,0.00,,,0.00,,2013-01-31 02:01:00,
2013-01-31 04:11:00,51.0,36.0,29.92,North,1,0.0,0.0,56,0.00,,,0.00,,2013-01-31 02:11:00,
2013-01-31 04:21:00,50.0,36.0,29.92,North,0,0.0,0.0,58,0.00,,,0.00,,2013-01-31 02:21:00,
2013-01-31 04:32:00,50.0,36.0,29.92,North,0,0.0,0.0,59,0.00,,,0.00,,2013-01-31 02:32:00,
2013-01-31 04:41:00,50.0,36.0,29.92,North,0,0.0,0.0,59,0.00,,,0.00,,2013-01-31 02:41:00,
2013-01-31 04:51:00,50.0,36.0,29.92,North,0,0.0,0.0,59,0.00,,,0.00,,2013-01-31 02:51:00,
2013-01-31 05:02:00,50.0,38.0,29.92,NE,46,0.0,1.0,64,0.00,,,0.00,,2013-01-31 03:02:00,
2013-01-31 05:11:00,50.0,38.0,29.92,NE,46,0.0,1.0,64,0.00,,,0.00,,2013-01-31 03:11:00,
2013-01-31 05:21:00,50.0,38.0,29.92,NE,45,0.0,0.0,64,0.00,,,0.00,,2013-01-31 03:21:00,
2013-01-31 05:32:00,49.0,37.0,29.91,North,0,0.0,0.0,64,0.00,,,0.00,,2013-01-31 03:32:00,
2013-01-31 05:41:00,49.0,37.0,29.91,North,0,0.0,0.0,64,0.00,,,0.00,,2013-01-31 03:41:00,
2013-01-31 05:51:00,49.0,38.0,29.91,NE,46,0.0,1.0,66,0.00,,,0.00,,2013-01-31 03:51:00,
2013-01-31 06:02:00,49.0,39.0,29.91,North,0,0.0,0.0,67,0.00,,,0.00,,2013-01-31 04:02:00,
2013-01-31 06:11:00,49.0,39.0,29.91,North,0,0.0,0.0,67,0.00,,,0.00,,2013-01-31 04:11:00,
2013-01-31 06:21:00,49.0,39.0,29.91,North,0,0.0,0.0,67,0.00,,,0.00,,2013-01-31 04:21:00,
2013-01-31 06:31:00,49.0,39.0,29.91,North,0,0.0,0.0,67,0.00,,,0.00,,2013-01-31 04:31:00,
2013-01-31 06:41:00,49.0,39.0,29.91,North,0,0.0,0.0,67,0.00,,,0.00,,2013-01-31 04:41:00,
2013-01-31 06:51:00,48.0,38.0,29.91,NE,45,0.0,1.0,68,0.00,,,0.00,,2013-01-31 04:51:00,
2013-01-31 07:03:00,48.0,38.0,29.90,North,0,0.0,0.0,69,0.00,,,0.00,,2013-01-31 05:03:00,
2013-01-31 07:10:00,48.0,40.0,29.90,NE,41,0.0,1.0,74,0.00,,,0.00,,2013-01-31 05:10:00,
2013-01-31 07:11:00,48.0,38.0,29.90,North,0,0.0,0.0,69,0.00,,,0.00,,2013-01-31 05:11:00,
2013-01-31 07:21:00,48.0,39.0,29.90,NE,45,0.0,0.0,72,0.00,,,0.00,,2013-01-31 05:21:00,
2013-01-31 07:31:00,48.0,39.0,29.90,NE,45,0.0,0.0,72,0.00,,,0.00,,2013-01-31 05:31:00,
2013-01-31 07:41:00,48.0,40.0,29.90,NE,41,0.0,1.0,74,0.00,,,0.00,,2013-01-31 05:41:00,
2013-01-31 07:51:00,48.0,40.0,29.90,NE,41,0.0,1.0,74,0.00,,,0.00,,2013-01-31 05:51:00,
2013-01-31 08:01:00,48.0,40.0,29.90,NE,41,0.0,1.0,74,0.00,,,0.00,,2013-01-31 06:01:00,
2013-01-31 16:02:00,60.0,48.0,29.80,ENE,72,0.0,2.0,64,0.00,,,0.00,,2013-01-31 14:02:00,
2013-01-31 16:11:00,60.0,48.0,29.80,ENE,72,0.0,2.0,64,0.00,,,0.00,,2013-01-31 14:11:00,
2013-01-31 16:21:00,60.0,48.0,29.79,East,90,1.0,3.0,64,0.00,,,0.00,,2013-01-31 14:21:00,
2013-01-31 16:31:00,60.0,48.0,29.80,ESE,109,0.0,1.0,64,0.00,,,0.00,,2013-01-31 14:31:00,
2013-01-31 16:41:00,60.0,48.0,29.80,ESE,109,0.0,1.0,64,0.00,,,0.00,,2013-01-31 14:41:00,
2013-01-31 16:52:00,60.0,48.0,29.80,NNE,29,0.0,1.0,64,0.00,,,0.00,,2013-01-31 14:52:00,
2013-01-31 17:02:00,60.0,48.0,29.80,ESE,123,0.0,0.0,64,0.00,,,0.00,,2013-01-31 15:02:00,
2013-01-31 17:11:00,59.0,47.0,29.81,WNW,290,0.0,1.0,64,0.00,,,0.00,,2013-01-31 15:11:00,
2013-01-31 17:21:00,59.0,47.0,29.81,WNW,290,0.0,1.0,64,0.00,,,0.00,,2013-01-31 15:21:00,
2013-01-31 17:32:00,59.0,47.0,29.82,NE,45,1.0,2.0,65,0.00,,,0.00,,2013-01-31 15:32:00,
2013-01-31 17:42:00,59.0,47.0,29.82,NE,45,1.0,2.0,65,0.00,,,0.00,,2013-01-31 15:42:00,
2013-01-31 17:51:00,59.0,48.0,29.83,NE,50,0.0,2.0,68,0.00,,,0.00,,2013-01-31 15:51:00,
2013-01-31 18:03:00,58.0,48.0,29.84,NE,49,2.0,3.0,69,0.00,,,0.00,,2013-01-31 16:03:00,
2013-01-31 18:11:00,58.0,48.0,29.84,NE,49,2.0,3.0,69,0.00,,,0.00,,2013-01-31 16:11:00,
2013-01-31 18:21:00,59.0,47.0,29.84,NNE,33,3.0,5.0,65,0.00,,,0.00,,2013-01-31 16:21:00,
2013-01-31 18:32:00,59.0,44.0,29.84,NNE,33,5.0,12.0,58,0.00,,,0.00,,2013-01-31 16:32:00,
2013-01-31 18:41:00,59.0,44.0,29.84,NNE,33,5.0,12.0,58,0.00,,,0.00,,2013-01-31 16:41:00,
2013-01-31 18:51:00,58.0,43.0,29.86,NNE,27,4.0,9.0,57,0.00,,,0.00,,2013-01-31 16:51:00,
2013-01-31 19:02:00,58.0,43.0,29.87,East,88,4.0,13.0,58,0.00,,,0.00,,2013-01-31 17:02:00,
2013-01-31 19:11:00,58.0,43.0,29.87,East,88,4.0,13.0,58,0.00,,,0.00,,2013-01-31 17:11:00,
2013-01-31 19:22:00,58.0,42.0,29.87,NE,35,4.0,9.0,56,0.00,,,0.00,,2013-01-31 17:22:00,
2013-01-31 19:31:00,57.0,42.0,29.85,NNE,32,2.0,3.0,57,0.00,,,0.00,,2013-01-31 17:31:00,
2013-01-31 19:42:00,57.0,42.0,29.85,NNE,32,2.0,3.0,57,0.00,,,0.00,,2013-01-31 17:42:00,
2013-01-31 19:53:00,57.0,42.0,29.87,NW,314,2.0,4.0,58,0.00,,,0.00,,2013-01-31 17:53:00,
2013-01-31 20:02:00,56.0,42.0,29.88,NNE,20,2.0,4.0,59,0.00,,,0.00,,2013-01-31 18:02:00,
2013-01-31 20:11:00,56.0,41.0,29.89,NE,51,3.0,10.0,57,0.00,,,0.00,,2013-01-31 18:11:00,
2013-01-31 20:21:00,56.0,41.0,29.89,NE,51,3.0,10.0,57,0.00,,,0.00,,2013-01-31 18:21:00,
2013-01-31 20:31:00,56.0,41.0,29.90,ENE,57,1.0,4.0,58,0.00,,,0.00,,2013-01-31 18:31:00,
2013-01-31 20:42:00,56.0,41.0,29.90,ENE,57,1.0,4.0,58,0.00,,,0.00,,2013-01-31 18:42:00,
2013-01-31 20:52:00,56.0,41.0,29.91,NW,325,2.0,3.0,58,0.00,,,0.00,,2013-01-31 18:52:00,
2013-01-31 21:02:00,56.0,41.0,29.91,NE,37,5.0,17.0,57,0.00,,,0.00,,2013-01-31 19:02:00,
2013-01-31 21:11:00,56.0,41.0,29.91,NE,37,5.0,17.0,57,0.00,,,0.00,,2013-01-31 19:11:00,
2013-01-31 21:21:00,56.0,41.0,29.91,North,355,5.0,10.0,57,0.00,,,0.00,,2013-01-31 19:21:00,
2013-01-31 21:32:00,56.0,41.0,29.91,NW,309,7.0,10.0,58,0.00,,,0.00,,2013-01-31 19:32:00,
2013-01-31 21:42:00,56.0,41.0,29.91,NW,309,7.0,10.0,58,0.00,,,0.00,,2013-01-31 19:42:00,
2013-01-31 21:51:00,56.0,42.0,29.93,North,6,7.0,15.0,59,0.00,,,0.00,,2013-01-31 19:51:00,
2013-01-31 22:01:00,56.0,40.0,29.93,NE,46,10.0,17.0,55,0.00,,,0.00,,2013-01-31 20:01:00,
2013-01-31 22:11:00,56.0,40.0,29.93,NE,46,10.0,17.0,55,0.00,,,0.00,,2013-01-31 20:11:00,
2013-01-31 22:21:00,55.0,37.0,29.93,NNE,12,7.0,16.0,51,0.00,,,0.00,,2013-01-31 20:21:00,
2013-01-31 22:31:00,55.0,36.0,29.93,NNE,12,5.0,8.0,49,0.00,,,0.00,,2013-01-31 20:31:00,
2013-01-31 22:41:00,55.0,36.0,29.95,North,5,7.0,15.0,48,0.00,,,0.00,,2013-01-31 20:41:00,
2013-01-31 22:52:00,55.0,36.0,29.95,North,5,7.0,15.0,48,0.00,,,0.00,,2013-01-31 20:52:00,
2013-01-31 23:01:00,55.0,37.0,29.95,NNW,341,4.0,10.0,50,0.00,,,0.00,,2013-01-31 21:01:00,
2013-01-31 23:11:00,54.0,36.0,29.95,SSW,212,3.0,5.0,50,0.00,,,0.00,,2013-01-31 21:11:00,
2013-01-31 23:21:00,54.0,36.0,29.95,SSW,212,3.0,5.0,50,0.00,,,0.00,,2013-01-31 21:21:00,
2013-01-31 23:31:00,54.0,34.0,29.95,North,358,4.0,13.0,46,0.00,,,0.00,,2013-01-31 21:31:00,
2013-01-31 23:42:00,54.0,34.0,29.95,North,358,4.0,13.0,46,0.00,,,0.00,,2013-01-31 21:42:00,
2013-01-31 23:51:00,54.0,35.0,29.95,SW,222,2.0,3.0,49,0.00,,,0.00,,2013-01-31 21:51:00,